CheckWX is a tool to help pilots better visualize weather data.  It is not intended as a substitute for an official pre-flight weather briefing.

20:36:57 UTC

EYPA METAR
Palanga International Airport
Palanga, Lithuania
Current

17 mins ago

EYPA 162020Z 09004KT 9999 -SHRA OVC049CB 13/12 Q1007
Observed
Jul-16 @ 20:20 UTC
Wind
  • 090° at 4 KTS
Visibility
10,000+ meters
Flight Rules
VFR
Conditions
Light Rain
Cloud Levels
  • Overcast at 4,900' AGL
Temperature
13°C / 55°F
Dewpoint
12°C / 54°F
Humidity
94%
Altimeter
29.73" Hg
Pressure
1006.92 hPa
Previous

47 mins ago

EYPA 161950Z 06003KT 8000 -SHRA OVC049CB 13/12 Q1007
Observed
Jul-16 @ 19:50 UTC
Wind
  • 060° at 3 KTS
Visibility
8,000 meters
Flight Rules
MVFR
Conditions
Light Rain
Cloud Levels
  • Overcast at 4,900' AGL
Temperature
13°C / 55°F
Dewpoint
12°C / 54°F
Humidity
94%
Altimeter
29.73" Hg
Pressure
1006.92 hPa
Previous

1 hour ago

EYPA 161920Z VRB02KT 9999 BKN046CB 13/12 Q1007
Observed
Jul-16 @ 19:20 UTC
Wind
  • Variable at 2 KTS
Visibility
10,000+ meters
Flight Rules
VFR
Cloud Levels
  • Broken at 4,600' AGL
Temperature
13°C / 55°F
Dewpoint
12°C / 54°F
Humidity
94%
Altimeter
29.73" Hg
Pressure
1006.92 hPa